createdAt,value
2019-01-27T00:01:51.045Z,3.17
2019-01-27T00:04:21.397Z,3.80
2019-01-27T00:06:52.614Z,4.80
2019-01-27T00:09:22.927Z,2.80
2019-01-27T00:11:53.598Z,2.63
2019-01-27T00:14:24.126Z,4.70
2019-01-27T00:16:54.534Z,2.40
2019-01-27T00:19:24.990Z,11.93
2019-01-27T00:21:55.991Z,2.37
2019-01-27T00:24:27.046Z,3.87
2019-01-27T00:26:57.511Z,2.17
2019-01-27T00:29:27.838Z,3.93
2019-01-27T00:31:58.254Z,3.30
2019-01-27T00:34:28.678Z,2.53
2019-01-27T00:37:02.094Z,2.43
2019-01-27T00:39:32.569Z,2.30
2019-01-27T00:42:03.198Z,2.30
2019-01-27T00:44:33.679Z,4.87
2019-01-27T00:47:04.101Z,3.93
2019-01-27T00:49:34.553Z,2.37
2019-01-27T00:52:05.010Z,3.03
2019-01-27T00:54:35.435Z,5.60
2019-01-27T00:57:06.334Z,2.17
2019-01-27T00:59:36.733Z,3.73
2019-01-27T01:02:08.591Z,2.90
2019-01-27T01:04:39.097Z,3.50
2019-01-27T01:07:10.304Z,2.73
2019-01-27T01:09:41.083Z,3.10
2019-01-27T01:12:11.484Z,2.93
2019-01-27T01:14:42.244Z,2.43
2019-01-27T01:17:17.049Z,1.90
2019-01-27T01:19:47.523Z,2.03
2019-01-27T01:22:21.595Z,1.63
2019-01-27T01:24:53.597Z,2.53
2019-01-27T01:27:27.076Z,4.20
2019-01-27T01:29:57.494Z,3.27
2019-01-27T01:32:27.906Z,4.60
2019-01-27T01:34:58.863Z,3.97
2019-01-27T01:37:29.967Z,2.70
2019-01-27T01:40:01.567Z,5.57
2019-01-27T01:42:33.347Z,5.97
2019-01-27T01:45:04.435Z,2.20
2019-01-27T01:47:34.810Z,1.90
2019-01-27T01:50:06.285Z,2.13
2019-01-27T01:52:36.775Z,4.53
2019-01-27T01:55:07.443Z,2.73
2019-01-27T01:57:38.719Z,2.50
2019-01-27T02:00:17.364Z,3.73
2019-01-27T02:02:47.961Z,3.80
2019-01-27T02:05:19.159Z,2.73
2019-01-27T02:07:50.068Z,2.90
2019-01-27T02:10:21.552Z,4.60
2019-01-27T02:12:54.987Z,4.07
2019-01-27T02:15:56.329Z,2.03
2019-01-27T02:18:26.870Z,3.63
2019-01-27T02:20:57.392Z,1.80
2019-01-27T02:23:28.821Z,2.13
2019-01-27T02:25:59.302Z,1.43
2019-01-27T02:28:38.117Z,1.60
2019-01-27T02:31:08.547Z,3.60
2019-01-27T02:33:39.070Z,2.20
2019-01-27T02:36:11.729Z,2.77
2019-01-27T02:38:42.052Z,3.43
2019-01-27T02:41:12.436Z,2.97
2019-01-27T02:43:43.973Z,3.37
2019-01-27T02:46:28.573Z,5.47
2019-01-27T02:49:01.402Z,4.67
2019-01-27T02:51:32.691Z,5.83
2019-01-27T02:54:03.073Z,7.00
2019-01-27T02:56:33.468Z,7.43
2019-01-27T02:59:07.272Z,6.70
2019-01-27T03:01:38.004Z,6.87
2019-01-27T03:04:08.690Z,6.53
2019-01-27T03:06:46.363Z,5.97
2019-01-27T03:09:20.781Z,8.40
2019-01-27T03:11:51.812Z,5.83
2019-01-27T03:14:22.479Z,8.73
2019-01-27T03:16:54.949Z,6.50
2019-01-27T03:19:25.331Z,8.00
2019-01-27T03:21:55.684Z,8.77
2019-01-27T03:24:26.089Z,9.53
2019-01-27T03:26:56.443Z,11.10
2019-01-27T03:29:26.782Z,11.93
2019-01-27T03:31:57.120Z,9.27
2019-01-27T03:34:27.489Z,9.97
2019-01-27T03:36:57.872Z,10.57
2019-01-27T03:39:28.239Z,8.00
2019-01-27T03:41:58.617Z,9.77
2019-01-27T03:44:29.023Z,8.33
2019-01-27T03:46:59.410Z,7.67
2019-01-27T03:49:29.796Z,8.10
2019-01-27T03:52:00.315Z,8.47
2019-01-27T03:54:33.581Z,8.60
2019-01-27T03:57:03.993Z,10.43
2019-01-27T03:59:34.372Z,6.97
2019-01-27T04:02:04.989Z,6.70
2019-01-27T04:04:35.343Z,5.87
2019-01-27T04:07:06.229Z,5.80
2019-01-27T04:09:36.584Z,4.67
2019-01-27T04:12:06.952Z,4.63
2019-01-27T04:14:37.398Z,3.03
2019-01-27T04:17:07.734Z,3.67
2019-01-27T04:19:38.127Z,3.60
2019-01-27T04:22:08.449Z,4.27
2019-01-27T04:24:38.750Z,3.13
2019-01-27T04:27:09.125Z,3.00
2019-01-27T04:29:39.913Z,2.27
2019-01-27T04:32:10.332Z,2.10
2019-01-27T04:34:41.068Z,4.20
2019-01-27T04:37:11.609Z,2.13
2019-01-27T04:39:45.079Z,2.50
2019-01-27T04:42:16.251Z,1.17
2019-01-27T04:44:48.870Z,1.20
2019-01-27T04:47:19.301Z,1.73
2019-01-27T04:49:49.679Z,1.70
2019-01-27T04:52:20.118Z,1.10
2019-01-27T04:54:50.537Z,0.50
2019-01-27T04:57:23.272Z,1.00
2019-01-27T05:00:13.028Z,1.00
2019-01-27T05:03:03.417Z,0.60
2019-01-27T05:05:34.128Z,0.50
2019-01-27T05:08:04.861Z,1.20
2019-01-27T05:10:38.525Z,1.17
2019-01-27T05:13:10.300Z,1.23
2019-01-27T05:15:41.408Z,1.77
2019-01-27T05:18:11.831Z,1.23
2019-01-27T05:20:44.573Z,1.10
2019-01-27T05:23:14.998Z,1.67
2019-01-27T05:25:47.468Z,2.77
2019-01-27T05:28:17.967Z,1.33
2019-01-27T05:30:48.305Z,1.43
2019-01-27T05:33:21.683Z,1.07
2019-01-27T05:35:53.532Z,1.30
2019-01-27T05:38:23.886Z,1.47
2019-01-27T05:40:54.344Z,1.93
2019-01-27T05:43:24.686Z,1.60
2019-01-27T05:45:55.092Z,1.80
2019-01-27T05:48:28.149Z,1.07
2019-01-27T05:50:58.545Z,4.10
2019-01-27T05:53:29.022Z,2.43
2019-01-27T05:55:59.377Z,1.17
2019-01-27T05:58:33.031Z,1.40
2019-01-27T06:01:03.464Z,1.60
2019-01-27T06:03:33.834Z,1.00
2019-01-27T06:06:04.268Z,2.73
2019-01-27T06:08:34.580Z,2.80
2019-01-27T06:11:04.964Z,2.13
2019-01-27T06:13:35.474Z,2.63
2019-01-27T06:16:05.877Z,3.60
2019-01-27T06:18:36.249Z,0.80
2019-01-27T06:21:06.687Z,3.50
2019-01-27T06:23:37.050Z,3.50
2019-01-27T06:26:09.468Z,1.70
2019-01-27T06:28:39.898Z,1.63
2019-01-27T06:31:10.302Z,1.23
2019-01-27T06:34:12.929Z,2.00
2019-01-27T06:36:43.324Z,1.30
2019-01-27T06:39:13.734Z,2.37
2019-01-27T06:41:44.114Z,1.87
2019-01-27T06:44:14.482Z,0.87
2019-01-27T06:46:44.876Z,5.37
2019-01-27T06:49:18.530Z,1.50
2019-01-27T06:51:51.727Z,2.67
2019-01-27T06:54:22.075Z,4.97
2019-01-27T06:56:52.406Z,2.50
2019-01-27T06:59:50.862Z,2.03
2019-01-27T07:02:29.666Z,3.17
2019-01-27T07:05:17.826Z,2.30
2019-01-27T07:08:05.761Z,3.30
2019-01-27T07:10:56.593Z,1.13
2019-01-27T07:14:02.009Z,2.53
2019-01-27T07:16:47.099Z,4.70
2019-01-27T07:19:48.540Z,2.80
2019-01-27T07:22:26.666Z,2.30
2019-01-27T07:25:31.009Z,2.57
2019-01-27T07:28:23.827Z,1.93
2019-01-27T07:31:14.589Z,2.70
2019-01-27T07:34:02.350Z,2.47
2019-01-27T07:36:51.630Z,1.77
2019-01-27T07:39:37.068Z,1.33
2019-01-27T07:42:14.739Z,1.73
2019-01-27T07:45:04.037Z,2.60
2019-01-27T07:47:41.387Z,2.93
2019-01-27T07:50:47.800Z,2.97
2019-01-27T07:53:24.979Z,4.33
2019-01-27T07:56:26.478Z,5.17
2019-01-27T07:59:02.662Z,3.07
2019-01-27T08:01:40.090Z,4.20
2019-01-27T08:04:35.423Z,2.80
2019-01-27T08:07:24.835Z,3.20
2019-01-27T08:10:20.167Z,2.40
2019-01-27T08:13:18.655Z,3.10
2019-01-27T08:16:15.826Z,1.70
2019-01-27T08:19:14.445Z,1.80
2019-01-27T08:22:10.067Z,2.60
2019-01-27T08:25:05.848Z,1.80
2019-01-27T08:27:58.080Z,2.27
2019-01-27T08:30:43.960Z,1.93
2019-01-27T08:33:36.340Z,3.40
2019-01-27T08:36:22.888Z,3.33
2019-01-27T08:39:15.366Z,4.57
2019-01-27T08:42:00.742Z,4.83
2019-01-27T08:45:05.278Z,4.13
2019-01-27T08:47:35.862Z,4.47
2019-01-27T08:50:09.795Z,2.87
2019-01-27T08:52:40.612Z,4.03
2019-01-27T08:55:12.882Z,3.00
2019-01-27T08:57:43.557Z,8.83
2019-01-27T09:00:21.169Z,4.27
2019-01-27T09:03:00.068Z,3.13
2019-01-27T09:06:01.718Z,5.13
2019-01-27T09:08:55.521Z,5.83
2019-01-27T09:11:36.258Z,4.97
2019-01-27T09:14:37.589Z,4.20
2019-01-27T09:17:41.923Z,3.43
2019-01-27T09:20:24.723Z,6.43
2019-01-27T09:23:08.509Z,8.13
2019-01-27T09:25:53.766Z,4.83
2019-01-27T09:28:31.685Z,6.40
2019-01-27T09:31:21.177Z,7.37
2019-01-27T09:34:25.717Z,6.03
2019-01-27T09:37:13.455Z,7.70
2019-01-27T09:40:05.532Z,6.57
2019-01-27T09:43:03.677Z,6.30
2019-01-27T09:46:05.179Z,3.20
2019-01-27T09:48:48.596Z,4.93
2019-01-27T09:51:31.941Z,3.90
2019-01-27T09:54:26.440Z,3.33
2019-01-27T09:57:14.804Z,4.27
2019-01-27T09:59:59.622Z,4.97
2019-01-27T10:02:35.622Z,7.23
2019-01-27T10:05:28.290Z,5.17
2019-01-27T10:08:21.892Z,5.13
2019-01-27T10:11:18.955Z,5.17
2019-01-27T10:14:06.743Z,4.87
2019-01-27T10:17:04.295Z,5.60
2019-01-27T10:20:05.763Z,3.73
2019-01-27T10:23:09.976Z,3.67
2019-01-27T10:26:11.274Z,3.97
2019-01-27T10:29:04.285Z,5.47
2019-01-27T10:31:47.836Z,2.20
2019-01-27T10:34:43.558Z,4.13
2019-01-27T10:37:40.214Z,4.80
2019-01-27T10:40:26.438Z,4.53
2019-01-27T10:43:30.045Z,2.13
2019-01-27T10:46:31.902Z,5.50
2019-01-27T10:49:11.738Z,5.60
2019-01-27T10:51:56.679Z,4.20
2019-01-27T10:54:52.354Z,5.03
2019-01-27T10:57:54.243Z,4.47
2019-01-27T11:00:43.474Z,4.20
2019-01-27T11:03:33.084Z,3.30
2019-01-27T11:06:22.402Z,6.50
2019-01-27T11:09:00.331Z,4.33
2019-01-27T11:11:46.130Z,3.53
2019-01-27T11:14:44.732Z,2.70
2019-01-27T11:17:46.705Z,4.23
2019-01-27T11:20:47.889Z,2.87
2019-01-27T11:23:37.599Z,1.77
2019-01-27T11:26:24.264Z,3.73
2019-01-27T11:29:35.093Z,2.83
2019-01-27T11:32:24.743Z,4.10
2019-01-27T11:35:11.581Z,4.03
2019-01-27T11:38:19.295Z,2.93
2019-01-27T11:41:12.364Z,5.10
2019-01-27T11:44:04.366Z,3.07
2019-01-27T11:47:05.550Z,3.37
2019-01-27T11:49:45.375Z,2.90
2019-01-27T11:52:33.561Z,4.03
2019-01-27T11:55:04.617Z,3.23
2019-01-27T11:57:36.072Z,2.40
2019-01-27T12:00:12.884Z,2.80
2019-01-27T12:02:46.694Z,1.40
2019-01-27T12:05:18.293Z,3.53
2019-01-27T12:07:48.937Z,3.50
2019-01-27T12:10:19.364Z,3.57
2019-01-27T12:12:50.635Z,3.30
2019-01-27T12:15:21.455Z,5.67
2019-01-27T12:17:51.884Z,3.00
2019-01-27T12:20:22.244Z,4.97
2019-01-27T12:22:55.224Z,4.37
2019-01-27T12:25:28.230Z,2.57
2019-01-27T12:27:59.251Z,2.40
2019-01-27T12:30:31.838Z,3.57
2019-01-27T12:33:02.367Z,4.33
2019-01-27T12:35:33.069Z,2.43
2019-01-27T12:38:03.675Z,2.07
2019-01-27T12:40:34.486Z,7.17
2019-01-27T12:43:07.507Z,5.93
2019-01-27T12:45:38.288Z,3.37
2019-01-27T12:48:10.347Z,5.97
2019-01-27T12:50:40.788Z,6.27
2019-01-27T12:53:11.193Z,3.20
2019-01-27T12:55:47.104Z,4.37
2019-01-27T12:58:18.347Z,2.83
2019-01-27T13:00:52.858Z,3.33
2019-01-27T13:03:24.747Z,2.70
2019-01-27T13:05:57.635Z,4.23
2019-01-27T13:08:28.080Z,4.47
2019-01-27T13:11:05.656Z,1.80
2019-01-27T13:13:34.640Z,3.60
2019-01-27T13:16:06.190Z,4.37
2019-01-27T13:18:36.860Z,4.20
2019-01-27T13:21:11.089Z,2.97
2019-01-27T13:23:41.579Z,3.70
2019-01-27T13:26:12.061Z,1.60
2019-01-27T13:28:42.429Z,3.27
2019-01-27T13:31:13.828Z,2.63
2019-01-27T13:33:44.156Z,2.10
2019-01-27T13:36:14.585Z,2.13
2019-01-27T13:38:50.977Z,1.70
2019-01-27T13:41:17.202Z,1.53
2019-01-27T13:43:48.731Z,3.73
2019-01-27T13:46:19.470Z,2.30
2019-01-27T13:48:49.940Z,1.40
2019-01-27T13:51:20.308Z,1.63
2019-01-27T13:53:51.076Z,5.23
2019-01-27T13:56:26.688Z,2.03
2019-01-27T13:58:57.083Z,1.30
2019-01-27T14:01:30.446Z,4.00
2019-01-27T14:04:02.646Z,4.23
2019-01-27T14:06:33.022Z,2.47
2019-01-27T14:09:23.001Z,2.40
2019-01-27T14:11:53.532Z,3.10
2019-01-27T14:14:27.006Z,3.23
2019-01-27T14:16:57.391Z,2.00
2019-01-27T14:19:30.707Z,4.13
2019-01-27T14:22:01.181Z,3.40
2019-01-27T14:24:31.561Z,2.23
2019-01-27T14:27:03.833Z,2.63
2019-01-27T14:29:34.208Z,3.80
2019-01-27T14:32:04.737Z,5.17
2019-01-27T14:34:35.192Z,5.53
2019-01-27T14:37:06.555Z,3.73
2019-01-27T14:39:39.802Z,6.20
2019-01-27T14:42:11.479Z,3.80
2019-01-27T14:44:45.314Z,4.87
2019-01-27T14:47:19.031Z,4.00
2019-01-27T14:49:51.811Z,4.40
2019-01-27T14:52:22.721Z,6.83
2019-01-27T14:54:53.228Z,3.37
2019-01-27T14:57:26.653Z,4.97
2019-01-27T14:59:59.236Z,6.33
2019-01-27T15:02:29.764Z,6.60
2019-01-27T15:05:01.672Z,8.03
2019-01-27T15:07:32.059Z,7.70
2019-01-27T15:10:02.408Z,3.07
2019-01-27T15:12:32.869Z,2.23
2019-01-27T15:15:03.348Z,3.43
2019-01-27T15:17:33.834Z,2.17
2019-01-27T15:20:05.183Z,3.07
2019-01-27T15:22:35.588Z,1.03
2019-01-27T15:25:07.832Z,2.37
2019-01-27T15:27:38.471Z,3.30
2019-01-27T15:30:19.216Z,3.60
2019-01-27T15:32:51.795Z,2.73
2019-01-27T15:35:23.332Z,2.87
2019-01-27T15:38:39.336Z,3.00
2019-01-27T15:41:04.643Z,1.97
2019-01-27T15:43:36.241Z,2.77
2019-01-27T15:46:08.549Z,1.97
2019-01-27T15:48:40.192Z,4.13
2019-01-27T15:51:12.014Z,4.83
2019-01-27T15:53:42.693Z,4.83
2019-01-27T15:56:14.245Z,3.50
2019-01-27T15:58:44.591Z,2.50
2019-01-27T16:01:15.915Z,4.97
2019-01-27T16:03:46.715Z,7.17
2019-01-27T16:06:18.351Z,7.40
2019-01-27T16:08:50.221Z,8.47
2019-01-27T16:11:21.427Z,8.33
2019-01-27T16:13:54.715Z,7.60
2019-01-27T16:16:26.300Z,10.43
2019-01-27T16:18:58.998Z,9.47
2019-01-27T16:21:30.581Z,8.80
2019-01-27T16:24:06.356Z,10.13
2019-01-27T16:26:40.534Z,8.77
2019-01-27T16:29:14.540Z,12.10
2019-01-27T16:31:52.568Z,11.90
2019-01-27T16:34:48.507Z,12.93
2019-01-27T16:37:19.548Z,14.53
2019-01-27T16:39:55.574Z,10.77
2019-01-27T16:42:26.799Z,14.43
2019-01-27T16:44:57.810Z,17.77
2019-01-27T16:47:33.789Z,12.50
2019-01-27T16:50:10.710Z,9.63
2019-01-27T16:52:41.182Z,11.03
2019-01-27T16:55:14.215Z,13.47
2019-01-27T16:57:45.023Z,15.30
2019-01-27T17:00:21.067Z,11.13
2019-01-27T17:02:54.931Z,10.73
2019-01-27T17:05:29.314Z,14.17
2019-01-27T17:07:59.820Z,18.27
2019-01-27T17:10:30.516Z,14.17
2019-01-27T17:13:03.818Z,12.57
2019-01-27T17:15:35.702Z,13.00
2019-01-27T17:18:06.660Z,17.47
2019-01-27T17:20:37.333Z,16.50
2019-01-27T17:23:11.244Z,15.90
2019-01-27T17:25:43.276Z,9.20
2019-01-27T17:28:16.728Z,11.93
2019-01-27T17:30:48.126Z,12.23
2019-01-27T17:33:18.529Z,8.57
2019-01-27T17:35:52.058Z,8.80
2019-01-27T17:38:26.411Z,9.50
2019-01-27T17:40:56.885Z,13.13
2019-01-27T17:43:27.363Z,17.83
2019-01-27T17:45:59.832Z,12.63
2019-01-27T17:48:34.985Z,10.43
2019-01-27T17:51:05.711Z,11.83
2019-01-27T17:53:46.715Z,11.20
2019-01-27T17:56:17.652Z,16.70
2019-01-27T17:59:11.308Z,14.83
2019-01-27T18:02:17.270Z,17.20
2019-01-27T18:05:05.622Z,13.07
2019-01-27T18:08:03.631Z,15.60
2019-01-27T18:10:56.105Z,15.70
2019-01-27T18:13:46.848Z,10.60
2019-01-27T18:16:17.264Z,19.80
2019-01-27T18:18:49.387Z,12.60
2019-01-27T18:21:20.032Z,7.33
2019-01-27T18:23:52.669Z,14.57
2019-01-27T18:26:24.028Z,16.53
2019-01-27T18:28:54.539Z,16.67
2019-01-27T18:31:25.079Z,14.47
2019-01-27T18:33:55.723Z,11.77
2019-01-27T18:36:26.540Z,13.13
2019-01-27T18:38:56.906Z,20.87
2019-01-27T18:41:29.137Z,13.03
2019-01-27T18:43:59.540Z,13.57
2019-01-27T18:46:30.067Z,20.10
2019-01-27T18:49:00.563Z,10.07
2019-01-27T18:51:31.219Z,11.37
2019-01-27T18:54:29.539Z,9.57
2019-01-27T18:57:05.645Z,16.20
2019-01-27T18:59:45.537Z,16.47
2019-01-27T19:02:33.663Z,15.87
2019-01-27T19:05:33.056Z,14.83
2019-01-27T19:08:21.242Z,12.83
2019-01-27T19:11:10.661Z,13.63
2019-01-27T19:13:57.847Z,8.00
2019-01-27T19:16:47.981Z,12.17
2019-01-27T19:19:27.194Z,11.43
2019-01-27T19:22:17.962Z,9.63
2019-01-27T19:25:19.833Z,13.07
2019-01-27T19:28:07.961Z,6.67
2019-01-27T19:30:46.077Z,11.67
2019-01-27T19:33:47.612Z,10.53
2019-01-27T19:36:35.367Z,7.87
2019-01-27T19:39:28.015Z,8.70
2019-01-27T19:42:16.095Z,10.27
2019-01-27T19:45:05.518Z,11.70
2019-01-27T19:47:53.756Z,16.37
2019-01-27T19:50:50.424Z,11.90
2019-01-27T19:53:27.965Z,17.00
2019-01-27T19:56:17.381Z,16.77
2019-01-27T19:59:09.823Z,11.63
2019-01-27T20:01:58.235Z,13.07
2019-01-27T20:04:41.244Z,15.00
2019-01-27T20:07:27.119Z,10.10
2019-01-27T20:10:29.697Z,7.73
2019-01-27T20:13:14.621Z,9.17
2019-01-27T20:16:05.120Z,9.63
2019-01-27T20:18:57.096Z,7.23
2019-01-27T20:21:53.566Z,10.53
2019-01-27T20:24:50.186Z,10.00
2019-01-27T20:27:43.101Z,11.33
2019-01-27T20:30:35.508Z,11.23
2019-01-27T20:33:25.845Z,10.27
2019-01-27T20:36:20.287Z,10.13
2019-01-27T20:39:11.518Z,12.47
2019-01-27T20:41:56.358Z,7.13
2019-01-27T20:44:48.450Z,7.73
2019-01-27T20:47:33.976Z,8.13
2019-01-27T20:50:14.556Z,9.07
2019-01-27T20:53:03.976Z,10.00
2019-01-27T20:55:59.885Z,10.57
2019-01-27T20:58:55.102Z,7.43
2019-01-27T21:01:49.067Z,9.73
2019-01-27T21:04:44.180Z,7.83
2019-01-27T21:07:29.965Z,9.73
2019-01-27T21:10:12.463Z,14.00
2019-01-27T21:12:52.778Z,11.13
2019-01-27T21:15:44.048Z,8.63
2019-01-27T21:18:31.518Z,10.13
2019-01-27T21:21:09.840Z,10.50
2019-01-27T21:23:41.475Z,9.17
2019-01-27T21:26:16.426Z,10.27
2019-01-27T21:28:46.981Z,14.63
2019-01-27T21:31:23.251Z,9.43
2019-01-27T21:33:55.975Z,12.67
2019-01-27T21:36:28.649Z,16.60
2019-01-27T21:39:02.117Z,11.47
2019-01-27T21:41:34.101Z,11.00
2019-01-27T21:44:05.523Z,13.47
2019-01-27T21:46:39.602Z,14.77
2019-01-27T21:49:10.034Z,11.40
2019-01-27T21:51:40.601Z,13.63
2019-01-27T21:54:11.025Z,10.83
2019-01-27T21:56:41.574Z,11.67
2019-01-27T21:59:12.102Z,11.13
2019-01-27T22:01:42.501Z,11.93
2019-01-27T22:04:12.878Z,14.17
2019-01-27T22:06:43.314Z,12.20
2019-01-27T22:09:13.776Z,8.40
2019-01-27T22:11:44.286Z,15.33
2019-01-27T22:14:17.584Z,9.97
2019-01-27T22:16:48.052Z,12.20
2019-01-27T22:19:18.763Z,14.43
2019-01-27T22:21:49.150Z,10.20
2019-01-27T22:24:19.526Z,9.47
2019-01-27T22:26:50.603Z,11.07
2019-01-27T22:29:20.974Z,13.53
2019-01-27T22:31:51.364Z,10.10
2019-01-27T22:34:22.068Z,11.37
2019-01-27T22:36:52.391Z,10.07
2019-01-27T22:39:22.854Z,10.77
2019-01-27T22:41:53.244Z,9.50
2019-01-27T22:44:25.640Z,9.27
2019-01-27T22:46:59.446Z,7.33
2019-01-27T22:49:29.895Z,15.40
2019-01-27T22:52:08.441Z,8.47
2019-01-27T22:54:38.770Z,11.57
2019-01-27T22:57:09.305Z,6.37
2019-01-27T22:59:40.112Z,8.00
2019-01-27T23:02:11.002Z,8.60
2019-01-27T23:04:41.514Z,6.73
2019-01-27T23:07:18.013Z,9.87
2019-01-27T23:09:48.547Z,6.97
2019-01-27T23:12:18.888Z,6.67
2019-01-27T23:14:52.405Z,9.87
2019-01-27T23:17:25.078Z,11.57
2019-01-27T23:19:55.443Z,10.47
2019-01-27T23:22:28.085Z,10.40
2019-01-27T23:24:58.547Z,6.43
2019-01-27T23:27:28.939Z,7.33
2019-01-27T23:29:59.479Z,9.67
2019-01-27T23:32:29.869Z,16.07
2019-01-27T23:35:02.673Z,13.30
2019-01-27T23:37:32.996Z,7.47
2019-01-27T23:40:04.998Z,9.23
2019-01-27T23:42:35.778Z,9.53
2019-01-27T23:45:11.619Z,9.23
2019-01-27T23:47:42.428Z,9.63
2019-01-27T23:50:13.020Z,7.70
2019-01-27T23:52:43.388Z,6.30
2019-01-27T23:55:13.709Z,8.17
2019-01-27T23:57:44.086Z,9.27
